Time;durP1;ratioP1;P1;durP2;ratioP2;P2;SDS_P1;SDS_P2;PMS_P1;PMS_P2;Temp;Humidity;BMP_temperature;BMP_pressure;BME280_temperature;BME280_humidity;BME280_pressure;Samples;Min_cycle;Max_cycle;Signal;HPM_P1;HPM_P2
2024/02/23 00:00:54;;;;;;;1.45;0.32;;;7.10;86.40;;;;;;5030678;28;20066;-63
2024/02/23 00:03:20;;;;;;;0.32;0.32;;;7.10;86.50;;;;;;5030832;28;20060;-63
2024/02/23 00:05:46;;;;;;;1.02;0.30;;;7.10;86.50;;;;;;5030476;28;20060;-63
2024/02/23 00:08:12;;;;;;;0.45;0.30;;;7.20;86.50;;;;;;5032830;28;20049;-62
2024/02/23 00:10:38;;;;;;;1.17;0.47;;;7.20;86.40;;;;;;5031866;28;20498;-62
2024/02/23 00:13:04;;;;;;;0.77;0.25;;;7.20;86.40;;;;;;5026514;28;20053;-62
2024/02/23 00:15:30;;;;;;;1.65;0.30;;;7.20;86.00;;;;;;5038300;28;20034;-62
2024/02/23 00:17:56;;;;;;;0.60;0.22;;;7.10;85.50;;;;;;5030461;28;20029;-62
2024/02/23 00:20:22;;;;;;;2.53;0.52;;;7.10;85.30;;;;;;5035311;28;20373;-62
2024/02/23 00:22:48;;;;;;;2.40;0.52;;;7.20;85.20;;;;;;5027440;28;20071;-63
2024/02/23 00:25:14;;;;;;;0.70;0.63;;;7.20;85.00;;;;;;5029964;28;20033;-62
2024/02/23 00:27:41;;;;;;;0.60;0.60;;;7.20;85.20;;;;;;5028748;28;20025;-62
2024/02/23 00:30:08;;;;;;;0.30;0.30;;;7.20;85.50;;;;;;5027374;28;20021;-63
2024/02/23 00:32:33;;;;;;;1.15;0.77;;;7.10;85.90;;;;;;5030942;28;20497;-63
2024/02/23 00:34:59;;;;;;;0.63;0.63;;;7.10;86.20;;;;;;5028737;28;20029;-62
2024/02/23 00:37:25;;;;;;;0.32;0.32;;;7.20;86.50;;;;;;5032245;28;20584;-62
2024/02/23 00:39:51;;;;;;;0.30;0.30;;;7.20;86.50;;;;;;5028732;28;20026;-62
2024/02/23 00:42:18;;;;;;;0.52;0.47;;;7.20;86.50;;;;;;5028958;28;20084;-62
2024/02/23 00:44:44;;;;;;;0.90;0.32;;;7.20;86.50;;;;;;5027234;28;20056;-63
2024/02/23 00:47:10;;;;;;;2.80;0.35;;;7.30;86.50;;;;;;5028038;28;20052;-62
2024/02/23 00:49:36;;;;;;;0.90;0.47;;;7.30;86.50;;;;;;5023053;28;20030;-62
2024/02/23 00:52:02;;;;;;;5.55;1.10;;;7.30;86.40;;;;;;5028165;28;20528;-62
2024/02/23 00:54:28;;;;;;;1.63;0.38;;;7.30;86.50;;;;;;5027755;28;20061;-65
2024/02/23 00:56:54;;;;;;;0.47;0.47;;;7.30;86.50;;;;;;5030323;28;20068;-65
2024/02/23 00:59:20;;;;;;;0.95;0.50;;;7.20;86.40;;;;;;5028746;28;20552;-65
2024/02/23 01:01:46;;;;;;;0.98;0.68;;;7.20;85.80;;;;;;5028011;28;20350;-65
2024/02/23 01:04:12;;;;;;;0.30;0.25;;;7.10;85.50;;;;;;5027089;28;20061;-65
2024/02/23 01:06:38;;;;;;;0.30;0.30;;;6.90;85.60;;;;;;5033176;28;20067;-65
2024/02/23 01:09:04;;;;;;;1.65;0.40;;;6.80;85.90;;;;;;5029542;28;20385;-65
2024/02/23 01:11:30;;;;;;;0.47;0.47;;;6.80;86.20;;;;;;5026313;28;20136;-65
2024/02/23 01:13:56;;;;;;;0.43;0.25;;;6.80;86.20;;;;;;5034646;28;20482;-65
2024/02/23 01:16:23;;;;;;;1.05;0.32;;;6.80;86.10;;;;;;5032235;28;20180;-65
2024/02/23 01:18:48;;;;;;;0.30;0.30;;;6.90;86.00;;;;;;5028149;28;20030;-65
2024/02/23 01:21:14;;;;;;;0.40;0.40;;;6.90;86.10;;;;;;5031886;28;20036;-65
2024/02/23 01:23:40;;;;;;;1.88;0.80;;;7.00;86.00;;;;;;5028840;28;20041;-65
2024/02/23 01:26:06;;;;;;;1.02;0.60;;;7.10;86.00;;;;;;5035606;28;20033;-65
2024/02/23 01:28:33;;;;;;;1.55;1.05;;;7.10;86.10;;;;;;5032700;28;20037;-65
2024/02/23 01:30:59;;;;;;;1.42;0.95;;;7.20;86.50;;;;;;5030297;28;20677;-65
2024/02/23 01:33:25;;;;;;;1.35;1.00;;;7.20;86.70;;;;;;5023849;28;20095;-65
2024/02/23 01:35:51;;;;;;;1.00;0.90;;;7.30;86.80;;;;;;5027975;28;20026;-65
2024/02/23 01:38:20;;;;;;;4.60;1.27;;;7.30;86.80;;;;;;5033229;28;20401;-65
2024/02/23 01:40:47;;;;;;;1.63;1.10;;;7.30;86.80;;;;;;5031226;28;20507;-65
2024/02/23 01:43:13;;;;;;;1.98;1.27;;;7.30;86.90;;;;;;5030958;28;20064;-65
2024/02/23 01:45:39;;;;;;;4.28;0.98;;;7.40;87.00;;;;;;5031742;28;20103;-65
2024/02/23 01:48:06;;;;;;;1.40;0.80;;;7.40;87.00;;;;;;5031217;28;20100;-63
2024/02/23 01:50:33;;;;;;;1.02;0.93;;;7.40;86.90;;;;;;5030683;28;20047;-63
2024/02/23 01:53:02;;;;;;;4.68;1.10;;;7.40;86.90;;;;;;5028538;28;20100;-63
2024/02/23 01:55:29;;;;;;;5.55;1.17;;;7.30;86.90;;;;;;5025235;28;20030;-63
2024/02/23 01:57:56;;;;;;;0.68;0.55;;;7.40;86.90;;;;;;5030599;28;20033;-63
2024/02/23 02:00:22;;;;;;;1.23;0.82;;;7.30;86.80;;;;;;5033994;28;20489;-63
2024/02/23 02:02:49;;;;;;;1.95;0.90;;;7.30;86.70;;;;;;5022863;28;20037;-63
2024/02/23 02:05:15;;;;;;;2.53;0.65;;;7.30;86.70;;;;;;5028661;28;20170;-62
2024/02/23 02:07:42;;;;;;;4.50;0.80;;;7.30;86.50;;;;;;5031249;28;20104;-63
2024/02/23 02:10:09;;;;;;;5.30;0.73;;;7.30;86.40;;;;;;5028473;28;20037;-63
2024/02/23 02:12:35;;;;;;;2.28;0.93;;;7.30;86.50;;;;;;5029844;28;20057;-63
2024/02/23 02:15:02;;;;;;;0.93;0.85;;;7.30;86.40;;;;;;5030917;28;20033;-62
2024/02/23 02:17:28;;;;;;;1.98;0.73;;;7.30;86.40;;;;;;5030626;28;20040;-63
2024/02/23 02:19:55;;;;;;;2.50;0.73;;;7.30;86.30;;;;;;5028613;28;20029;-63
2024/02/23 02:22:21;;;;;;;0.65;0.43;;;7.30;86.20;;;;;;5030887;28;20103;-63
2024/02/23 02:24:47;;;;;;;3.13;0.90;;;7.30;86.20;;;;;;5021944;28;20061;-63
2024/02/23 02:27:14;;;;;;;1.90;0.60;;;7.30;86.10;;;;;;5030314;28;20041;-62
2024/02/23 02:29:40;;;;;;;2.05;0.70;;;7.30;86.00;;;;;;5026160;28;20034;-65
2024/02/23 02:32:07;;;;;;;1.52;0.60;;;7.20;85.80;;;;;;5029578;28;20029;-65
2024/02/23 02:34:33;;;;;;;3.90;0.88;;;7.10;85.60;;;;;;5032870;28;20119;-65
2024/02/23 02:37:00;;;;;;;0.45;0.30;;;7.10;85.60;;;;;;5030862;28;20064;-65
2024/02/23 02:39:27;;;;;;;1.58;0.82;;;7.10;85.70;;;;;;5030727;28;20064;-65
2024/02/23 02:41:53;;;;;;;2.38;1.15;;;7.10;85.70;;;;;;5031136;28;20033;-65
2024/02/23 02:44:19;;;;;;;1.70;0.70;;;7.10;85.50;;;;;;5030608;28;20038;-65
2024/02/23 02:46:46;;;;;;;0.30;0.22;;;7.10;85.50;;;;;;5030254;28;20060;-65
2024/02/23 02:49:12;;;;;;;0.45;0.43;;;7.10;85.40;;;;;;5030680;28;20026;-65
2024/02/23 02:51:38;;;;;;;1.90;0.68;;;7.20;85.20;;;;;;5033527;28;20033;-65
2024/02/23 02:54:04;;;;;;;1.35;1.05;;;7.20;85.20;;;;;;5023070;28;20025;-65
2024/02/23 02:56:30;;;;;;;1.98;0.70;;;7.10;85.10;;;;;;5029877;28;20037;-65
2024/02/23 02:58:56;;;;;;;2.17;1.00;;;7.10;85.60;;;;;;5029498;28;20029;-65
2024/02/23 03:01:22;;;;;;;1.00;0.68;;;7.10;84.90;;;;;;5029731;28;20029;-65
2024/02/23 03:03:49;;;;;;;2.50;0.47;;;7.10;84.90;;;;;;5031973;28;20044;-65
2024/02/23 03:06:15;;;;;;;2.72;0.82;;;7.10;84.80;;;;;;5031631;28;20034;-65
2024/02/23 03:08:43;;;;;;;1.30;0.80;;;7.10;84.80;;;;;;5029432;28;20029;-65
2024/02/23 03:11:09;;;;;;;4.32;0.85;;;7.10;84.80;;;;;;5030632;28;20030;-65
2024/02/23 03:13:35;;;;;;;1.02;0.50;;;7.10;84.80;;;;;;5027806;28;20022;-65
2024/02/23 03:16:01;;;;;;;0.38;0.38;;;7.20;84.70;;;;;;5030430;28;20565;-65
2024/02/23 03:18:28;;;;;;;0.57;0.57;;;7.20;84.70;;;;;;5027636;28;20045;-65
2024/02/23 03:20:55;;;;;;;7.68;1.25;;;7.20;84.40;;;;;;5020519;28;20083;-65
2024/02/23 03:23:23;;;;;;;0.65;0.50;;;7.20;84.50;;;;;;5030709;28;20107;-65
2024/02/23 03:25:49;;;;;;;8.77;0.75;;;7.20;84.50;;;;;;5039877;28;20042;-65
2024/02/23 03:28:15;;;;;;;0.30;0.30;;;7.20;84.10;;;;;;5025774;28;20425;-65
2024/02/23 03:30:41;;;;;;;0.70;0.30;;;7.20;84.00;;;;;;5028746;28;20100;-65
2024/02/23 03:33:07;;;;;;;2.17;0.47;;;7.20;83.90;;;;;;5029887;28;20117;-65
2024/02/23 03:35:33;;;;;;;2.42;0.80;;;7.20;83.90;;;;;;5012631;28;20440;-63
2024/02/23 03:37:59;;;;;;;0.82;0.60;;;7.30;84.40;;;;;;5025125;28;20029;-63
2024/02/23 03:40:25;;;;;;;1.27;0.40;;;7.20;83.70;;;;;;5025757;28;20144;-63
2024/02/23 03:42:51;;;;;;;3.55;0.47;;;7.20;83.60;;;;;;5027461;28;20465;-63
2024/02/23 03:45:17;;;;;;;0.50;0.50;;;7.20;83.60;;;;;;5024049;28;20054;-63
2024/02/23 03:47:43;;;;;;;1.70;0.88;;;7.20;83.70;;;;;;5030070;28;20112;-65
2024/02/23 03:50:10;;;;;;;2.15;1.02;;;7.20;83.30;;;;;;5028481;28;20068;-65
2024/02/23 03:52:36;;;;;;;0.30;0.30;;;7.20;83.50;;;;;;5029692;28;20037;-65
2024/02/23 03:55:03;;;;;;;2.40;0.85;;;7.20;83.30;;;;;;5027941;28;20072;-65
2024/02/23 03:57:29;;;;;;;0.82;0.70;;;7.20;83.30;;;;;;5029897;28;20025;-65
2024/02/23 03:59:57;;;;;;;0.50;0.50;;;7.20;83.40;;;;;;5028290;28;20014;-65
2024/02/23 04:02:23;;;;;;;0.28;0.25;;;7.20;83.30;;;;;;5028854;28;20056;-63
2024/02/23 04:04:49;;;;;;;1.42;0.77;;;7.20;83.30;;;;;;5028854;28;20060;-63
2024/02/23 04:07:15;;;;;;;2.35;0.88;;;7.20;83.40;;;;;;5028918;28;20033;-63
2024/02/23 04:09:41;;;;;;;4.53;1.13;;;7.20;83.50;;;;;;5031655;28;20105;-65
2024/02/23 04:12:07;;;;;;;3.10;0.70;;;7.20;83.30;;;;;;5029067;28;20026;-65
2024/02/23 04:14:36;;;;;;;1.13;0.52;;;7.10;83.40;;;;;;5029653;28;20026;-65
2024/02/23 04:17:05;;;;;;;2.63;0.82;;;7.20;83.50;;;;;;5030110;28;20048;-65
2024/02/23 04:19:31;;;;;;;0.82;0.50;;;7.10;83.50;;;;;;5027825;28;20049;-65
2024/02/23 04:21:57;;;;;;;1.17;0.80;;;7.10;83.60;;;;;;5028717;28;20497;-65
2024/02/23 04:24:23;;;;;;;1.02;0.55;;;7.20;83.30;;;;;;5035119;28;20025;-64
2024/02/23 04:26:49;;;;;;;1.13;0.55;;;7.10;83.30;;;;;;5028569;28;20473;-63
2024/02/23 04:29:15;;;;;;;2.95;0.60;;;7.10;83.60;;;;;;5028932;28;20358;-63
2024/02/23 04:31:41;;;;;;;1.98;0.85;;;7.10;83.60;;;;;;5023140;28;20479;-63
2024/02/23 04:34:06;;;;;;;3.75;0.93;;;7.10;83.50;;;;;;5025309;28;20492;-63
2024/02/23 04:36:33;;;;;;;2.42;0.95;;;7.00;83.50;;;;;;5024820;28;20050;-63
2024/02/23 04:38:58;;;;;;;1.27;0.60;;;7.00;83.60;;;;;;5024237;28;20025;-65
2024/02/23 04:41:24;;;;;;;2.78;0.82;;;7.00;83.70;;;;;;5035979;28;20373;-65
2024/02/23 04:43:51;;;;;;;4.82;0.95;;;7.00;83.60;;;;;;5031306;28;20124;-65
2024/02/23 04:46:18;;;;;;;0.57;0.57;;;7.00;83.70;;;;;;5040198;28;20488;-65
2024/02/23 04:48:44;;;;;;;2.00;0.40;;;7.00;83.70;;;;;;5034902;28;20060;-65
2024/02/23 04:51:10;;;;;;;2.90;0.70;;;7.10;83.70;;;;;;5039935;28;20025;-65
2024/02/23 04:53:37;;;;;;;4.63;1.38;;;7.10;83.50;;;;;;5042908;28;20442;-65
2024/02/23 04:56:04;;;;;;;1.92;1.00;;;7.10;83.50;;;;;;5041630;28;20484;-65
2024/02/23 04:58:30;;;;;;;1.38;0.93;;;7.10;83.60;;;;;;5040802;28;20045;-65
2024/02/23 05:00:56;;;;;;;1.00;0.60;;;7.10;83.40;;;;;;5033064;28;20139;-63
2024/02/23 05:03:23;;;;;;;3.10;1.30;;;7.10;83.30;;;;;;5032147;28;20099;-64
2024/02/23 05:05:53;;;;;;;1.88;0.98;;;7.10;83.20;;;;;;5034798;28;20018;-65
2024/02/23 05:08:20;;;;;;;1.15;0.77;;;7.10;83.30;;;;;;5033182;28;20030;-65
2024/02/23 05:10:49;;;;;;;5.90;0.85;;;7.10;83.30;;;;;;5034803;28;20121;-65
2024/02/23 05:13:15;;;;;;;1.05;0.85;;;7.10;83.30;;;;;;5030995;28;20544;-65
2024/02/23 05:15:41;;;;;;;1.25;0.55;;;7.20;83.30;;;;;;5023685;28;20064;-65
2024/02/23 05:18:07;;;;;;;1.13;0.75;;;7.20;83.30;;;;;;5026188;28;20029;-65
2024/02/23 05:20:33;;;;;;;2.28;0.75;;;7.20;83.10;;;;;;5035490;28;20040;-65
2024/02/23 05:23:00;;;;;;;3.42;0.80;;;7.20;83.10;;;;;;5035049;28;20108;-65
2024/02/23 05:25:27;;;;;;;0.40;0.38;;;7.20;83.00;;;;;;5035092;28;20031;-65
2024/02/23 05:27:54;;;;;;;2.65;0.80;;;7.30;83.10;;;;;;5032848;28;20196;-65
2024/02/23 05:30:20;;;;;;;3.38;1.35;;;7.30;82.90;;;;;;5032354;28;20067;-65
2024/02/23 05:32:47;;;;;;;7.22;0.82;;;7.30;82.80;;;;;;5032972;28;20025;-65
2024/02/23 05:35:14;;;;;;;0.75;0.63;;;7.40;82.90;;;;;;5033052;28;20032;-65
2024/02/23 05:37:41;;;;;;;0.45;0.45;;;7.40;82.80;;;;;;5033144;28;20056;-65
2024/02/23 05:40:11;;;;;;;0.63;0.63;;;7.50;82.80;;;;;;5032252;28;20072;-65
2024/02/23 05:42:37;;;;;;;1.10;0.40;;;7.50;82.60;;;;;;5029302;28;20633;-65
2024/02/23 05:45:04;;;;;;;2.38;0.80;;;7.40;82.60;;;;;;5040387;28;20046;-65
2024/02/23 05:47:31;;;;;;;2.97;0.88;;;7.50;82.60;;;;;;5030873;28;20029;-65
2024/02/23 05:49:57;;;;;;;1.05;0.50;;;7.50;82.60;;;;;;5039046;28;20029;-65
2024/02/23 05:52:23;;;;;;;2.88;0.75;;;7.50;82.50;;;;;;5029810;28;20033;-65
2024/02/23 05:54:49;;;;;;;1.92;0.88;;;7.50;82.30;;;;;;5027997;28;20026;-65
2024/02/23 05:57:15;;;;;;;3.72;0.70;;;7.50;82.30;;;;;;5034333;28;20026;-65
2024/02/23 05:59:41;;;;;;;2.67;0.90;;;7.50;82.30;;;;;;5036766;28;20041;-65
2024/02/23 06:02:07;;;;;;;3.00;0.63;;;7.50;82.30;;;;;;5032125;28;20393;-65
2024/02/23 06:04:33;;;;;;;2.08;0.57;;;7.50;82.40;;;;;;5031177;28;20025;-65
2024/02/23 06:06:58;;;;;;;1.65;0.65;;;7.60;82.40;;;;;;5028737;28;20148;-65
2024/02/23 06:09:24;;;;;;;0.93;0.57;;;7.50;82.20;;;;;;5030231;28;20026;-65
2024/02/23 06:11:50;;;;;;;1.08;0.73;;;7.50;82.10;;;;;;5040964;28;20038;-63
2024/02/23 06:14:15;;;;;;;1.23;0.60;;;7.50;82.10;;;;;;5030938;28;20051;-65
2024/02/23 06:16:41;;;;;;;0.68;0.55;;;7.50;82.00;;;;;;5032813;28;20048;-65
2024/02/23 06:19:07;;;;;;;1.13;0.65;;;7.50;82.00;;;;;;5029191;28;20048;-65
2024/02/23 06:21:32;;;;;;;4.72;0.85;;;7.60;82.20;;;;;;5031136;28;20025;-62
2024/02/23 06:23:58;;;;;;;0.95;0.38;;;7.50;81.90;;;;;;5028846;28;20034;-62
2024/02/23 06:26:24;;;;;;;1.42;0.73;;;7.50;81.90;;;;;;5030478;28;20033;-62
2024/02/23 06:28:50;;;;;;;1.17;1.00;;;7.50;81.80;;;;;;5028563;28;20087;-63
2024/02/23 06:31:16;;;;;;;3.50;0.88;;;7.50;81.80;;;;;;5031433;28;20422;-63
2024/02/23 06:33:42;;;;;;;1.20;0.50;;;7.50;81.80;;;;;;5024930;28;20033;-63
2024/02/23 06:36:09;;;;;;;5.00;1.20;;;7.50;81.70;;;;;;5041651;28;20327;-65
2024/02/23 06:38:35;;;;;;;1.25;0.85;;;7.50;81.70;;;;;;5031638;28;20037;-65
2024/02/23 06:41:01;;;;;;;0.47;0.47;;;7.50;81.50;;;;;;5028232;28;20049;-65
2024/02/23 06:43:26;;;;;;;1.13;0.93;;;7.50;81.60;;;;;;5026410;28;20076;-65
2024/02/23 06:45:52;;;;;;;0.60;0.60;;;7.50;81.50;;;;;;5031038;28;20069;-65
2024/02/23 06:48:18;;;;;;;3.53;0.98;;;7.50;81.30;;;;;;5028713;28;20097;-62
2024/02/23 06:50:44;;;;;;;4.20;0.55;;;7.50;81.30;;;;;;5025414;28;20033;-62
2024/02/23 06:53:09;;;;;;;0.50;0.50;;;7.50;81.40;;;;;;5035393;28;20068;-63
2024/02/23 06:55:35;;;;;;;0.68;0.57;;;7.60;81.50;;;;;;5029439;28;20099;-62
2024/02/23 06:58:01;;;;;;;3.03;0.88;;;7.60;81.30;;;;;;5030888;28;20037;-65
2024/02/23 07:00:28;;;;;;;2.63;1.00;;;7.60;81.20;;;;;;5031351;28;20481;-65
2024/02/23 07:02:53;;;;;;;2.63;1.02;;;7.70;81.10;;;;;;5029739;28;20088;-65
2024/02/23 07:05:19;;;;;;;3.60;0.65;;;7.60;80.90;;;;;;5029537;28;20390;-65
2024/02/23 07:07:46;;;;;;;2.83;1.30;;;7.70;81.10;;;;;;5028734;28;20511;-65
2024/02/23 07:10:12;;;;;;;0.88;0.40;;;7.70;80.90;;;;;;5030636;28;20046;-65
2024/02/23 07:12:38;;;;;;;2.35;1.08;;;7.70;80.90;;;;;;5031542;28;20356;-65
2024/02/23 07:15:04;;;;;;;1.75;1.17;;;7.70;80.80;;;;;;5033831;28;20416;-65
2024/02/23 07:17:29;;;;;;;4.10;0.47;;;7.70;80.50;;;;;;5030024;28;20476;-65
2024/02/23 07:20:02;;;;;;;0.40;0.30;;;7.70;80.20;;;;;;5030289;28;20032;-65
2024/02/23 07:22:28;;;;;;;3.55;1.40;;;7.80;80.40;;;;;;5031730;28;20050;-65
2024/02/23 07:24:54;;;;;;;1.27;0.70;;;7.80;79.70;;;;;;5031679;28;20045;-65
2024/02/23 07:27:19;;;;;;;2.95;0.95;;;7.80;79.80;;;;;;5029383;28;20542;-65
2024/02/23 07:29:45;;;;;;;1.63;0.73;;;7.80;79.80;;;;;;5034212;28;20384;-65
2024/02/23 07:32:11;;;;;;;5.50;0.98;;;7.90;79.70;;;;;;5035807;28;20094;-65
2024/02/23 07:34:36;;;;;;;1.77;1.02;;;7.90;79.60;;;;;;5028448;28;20037;-65
2024/02/23 07:37:03;;;;;;;1.63;0.77;;;7.90;79.10;;;;;;5029848;28;20343;-66
2024/02/23 07:39:29;;;;;;;7.68;1.27;;;7.90;79.00;;;;;;5029880;28;20041;-65
2024/02/23 07:41:55;;;;;;;3.38;0.60;;;7.90;78.80;;;;;;5028591;28;20416;-65
2024/02/23 07:44:21;;;;;;;2.45;0.85;;;8.00;78.70;;;;;;5032429;28;20041;-65
2024/02/23 07:46:46;;;;;;;1.17;0.70;;;8.00;79.10;;;;;;5025789;28;20041;-65
2024/02/23 07:49:12;;;;;;;2.03;0.60;;;7.90;78.30;;;;;;5030962;28;20033;-65
2024/02/23 07:51:37;;;;;;;3.97;0.90;;;7.90;78.10;;;;;;5017931;28;20029;-65
2024/02/23 07:54:03;;;;;;;2.92;0.93;;;7.90;78.40;;;;;;5031029;28;20481;-65
2024/02/23 07:56:30;;;;;;;1.98;0.40;;;8.00;78.20;;;;;;5029181;28;20506;-65
2024/02/23 07:58:56;;;;;;;2.75;0.93;;;8.00;77.60;;;;;;5031818;28;20029;-65
2024/02/23 08:01:22;;;;;;;1.55;0.47;;;8.10;77.50;;;;;;5034874;28;20084;-66
2024/02/23 08:03:47;;;;;;;4.28;0.60;;;8.20;77.60;;;;;;5023974;28;20559;-65
2024/02/23 08:06:13;;;;;;;1.85;0.63;;;8.20;77.10;;;;;;5029267;28;20159;-65
2024/02/23 08:08:39;;;;;;;1.05;0.60;;;8.20;77.20;;;;;;5023459;28;20065;-65
2024/02/23 08:11:05;;;;;;;3.60;1.20;;;8.20;77.10;;;;;;5033017;28;20480;-65
2024/02/23 08:13:31;;;;;;;2.47;0.45;;;8.20;76.80;;;;;;5029795;28;20112;-65
2024/02/23 08:15:59;;;;;;;0.90;0.52;;;8.30;77.10;;;;;;5025831;28;20104;-65
2024/02/23 08:18:25;;;;;;;1.42;0.75;;;8.40;77.50;;;;;;5027962;28;20052;-65
2024/02/23 08:20:51;;;;;;;1.58;0.73;;;8.50;77.10;;;;;;5037191;28;20037;-65
2024/02/23 08:23:19;;;;;;;1.70;0.60;;;8.60;76.90;;;;;;5030854;28;20044;-65
2024/02/23 08:25:44;;;;;;;1.90;0.82;;;8.60;76.60;;;;;;5026071;28;20136;-65
2024/02/23 08:28:10;;;;;;;0.63;0.57;;;8.50;76.50;;;;;;5043600;28;20096;-66
2024/02/23 08:30:36;;;;;;;1.45;0.63;;;8.60;76.70;;;;;;5034903;28;20030;-65
2024/02/23 08:33:02;;;;;;;0.75;0.30;;;8.60;76.80;;;;;;5025046;28;20109;-65
2024/02/23 08:35:27;;;;;;;2.35;0.40;;;8.60;76.90;;;;;;5032704;28;20046;-66
2024/02/23 08:37:53;;;;;;;2.05;0.80;;;8.60;76.90;;;;;;5031644;28;20033;-63
2024/02/23 08:40:19;;;;;;;0.50;0.50;;;8.60;76.70;;;;;;5041364;28;20392;-63
2024/02/23 08:42:47;;;;;;;4.25;0.80;;;8.60;76.50;;;;;;5039672;28;20037;-63
2024/02/23 08:45:13;;;;;;;2.20;1.25;;;8.60;76.20;;;;;;5038793;28;20159;-63
2024/02/23 08:47:39;;;;;;;1.40;0.60;;;8.60;76.20;;;;;;5038986;28;20036;-63
2024/02/23 08:50:06;;;;;;;2.30;0.55;;;8.60;76.10;;;;;;5037709;28;20044;-63
2024/02/23 08:52:32;;;;;;;1.13;0.90;;;8.70;76.20;;;;;;5040574;28;20031;-63
2024/02/23 08:54:58;;;;;;;2.45;0.80;;;8.80;75.70;;;;;;5038451;28;20029;-63
2024/02/23 08:57:23;;;;;;;1.75;0.80;;;8.80;75.80;;;;;;5039089;28;20038;-63
2024/02/23 08:59:49;;;;;;;5.55;1.30;;;9.00;75.20;;;;;;5034962;28;20368;-64
2024/02/23 09:02:15;;;;;;;1.17;0.80;;;9.10;74.90;;;;;;5042124;28;20025;-64
2024/02/23 09:04:41;;;;;;;2.67;0.82;;;9.20;74.20;;;;;;5028280;28;20030;-64
2024/02/23 09:07:07;;;;;;;1.13;1.02;;;9.10;73.60;;;;;;5040683;28;20037;-63
2024/02/23 09:09:32;;;;;;;2.22;0.88;;;9.10;73.80;;;;;;5034905;28;20485;-62
2024/02/23 09:11:58;;;;;;;1.20;0.68;;;9.00;74.00;;;;;;5035848;28;20484;-62
2024/02/23 09:14:25;;;;;;;0.65;0.60;;;9.00;74.10;;;;;;5038163;28;20064;-65
2024/02/23 09:16:51;;;;;;;1.38;0.77;;;9.00;74.30;;;;;;5028302;28;20040;-64
2024/02/23 09:19:18;;;;;;;3.22;1.77;;;8.90;74.20;;;;;;5039977;28;20025;-64
2024/02/23 09:21:44;;;;;;;0.57;0.57;;;8.90;74.30;;;;;;5031473;28;20041;-64
2024/02/23 09:24:10;;;;;;;5.03;0.65;;;8.90;74.30;;;;;;5038350;28;20432;-64
2024/02/23 09:26:35;;;;;;;0.43;0.43;;;8.90;74.20;;;;;;5021084;28;20120;-64
2024/02/23 09:29:01;;;;;;;1.27;0.63;;;8.90;74.00;;;;;;5036860;28;20069;-64
2024/02/23 09:31:28;;;;;;;1.48;0.63;;;8.90;74.30;;;;;;5031195;28;20044;-64
2024/02/23 09:33:55;;;;;;;1.88;1.67;;;9.00;74.70;;;;;;5019898;28;20030;-64
2024/02/23 09:36:20;;;;;;;1.70;0.88;;;9.00;74.70;;;;;;5032433;28;20503;-64
2024/02/23 09:38:48;;;;;;;1.33;0.82;;;9.00;74.80;;;;;;5038311;28;20025;-64
2024/02/23 09:41:21;;;;;;;0.38;0.38;;;9.00;74.70;;;;;;5023155;28;20155;-64
2024/02/23 09:43:50;;;;;;;2.08;0.52;;;9.00;75.00;;;;;;5025676;28;20030;-64
2024/02/23 09:46:17;;;;;;;1.23;0.40;;;8.90;74.60;;;;;;5028633;28;20568;-64
2024/02/23 09:48:47;;;;;;;2.00;1.02;;;8.90;74.90;;;;;;5030063;28;20600;-64
2024/02/23 09:51:14;;;;;;;0.75;0.47;;;8.90;74.90;;;;;;5033720;28;20025;-64
2024/02/23 09:53:42;;;;;;;3.17;0.98;;;9.00;75.00;;;;;;5037971;28;20082;-65
2024/02/23 09:56:08;;;;;;;1.48;0.90;;;8.90;74.70;;;;;;5030127;28;20068;-64
2024/02/23 09:58:36;;;;;;;1.15;0.82;;;9.00;75.20;;;;;;5045581;28;20045;-64
2024/02/23 10:01:03;;;;;;;1.08;0.98;;;9.00;75.00;;;;;;5034115;28;20112;-64
2024/02/23 10:03:30;;;;;;;1.77;0.80;;;9.00;74.80;;;;;;5032893;28;20384;-64
2024/02/23 10:06:01;;;;;;;1.30;0.77;;;9.00;74.70;;;;;;5025193;28;20088;-64
2024/02/23 10:08:27;;;;;;;3.10;1.13;;;9.10;75.00;;;;;;5047680;28;20049;-64
2024/02/23 10:10:54;;;;;;;0.80;0.70;;;9.10;74.90;;;;;;5053178;28;20154;-64
2024/02/23 10:13:20;;;;;;;0.98;0.40;;;9.10;74.80;;;;;;5019113;28;20071;-64
2024/02/23 10:15:52;;;;;;;0.35;0.30;;;9.10;74.70;;;;;;5027388;28;20490;-64
2024/02/23 10:18:18;;;;;;;1.95;1.17;;;9.20;74.90;;;;;;5036104;28;20497;-67
2024/02/23 10:20:44;;;;;;;1.23;0.60;;;9.20;74.60;;;;;;5032033;28;20041;-67
2024/02/23 10:23:10;;;;;;;5.80;1.05;;;9.20;74.70;;;;;;5029991;28;20041;-68
2024/02/23 10:25:37;;;;;;;3.63;1.08;;;9.20;74.90;;;;;;5033970;28;20032;-68
2024/02/23 10:28:06;;;;;;;1.30;0.75;;;9.10;75.30;;;;;;5040336;28;20252;-68
2024/02/23 10:30:32;;;;;;;2.47;0.70;;;9.10;75.70;;;;;;5028703;28;20034;-67
2024/02/23 10:32:59;;;;;;;0.60;0.50;;;9.00;76.20;;;;;;5026970;28;21431;-67
2024/02/23 10:35:26;;;;;;;2.75;0.68;;;9.10;76.80;;;;;;5030953;28;20036;-67
2024/02/23 10:37:54;;;;;;;3.72;0.88;;;9.00;76.90;;;;;;5033334;28;20497;-68
2024/02/23 10:40:24;;;;;;;2.15;1.08;;;9.00;77.10;;;;;;5035859;28;20028;-67
2024/02/23 10:42:54;;;;;;;6.20;1.23;;;9.00;77.20;;;;;;5023644;28;20013;-68
2024/02/23 10:45:23;;;;;;;1.27;0.40;;;9.00;77.30;;;;;;5031216;28;20029;-67
2024/02/23 10:47:50;;;;;;;0.40;0.40;;;8.90;77.40;;;;;;5033054;28;20444;-68
2024/02/23 10:50:19;;;;;;;1.13;0.43;;;8.90;77.70;;;;;;5040716;28;20098;-68
2024/02/23 10:52:48;;;;;;;5.05;1.02;;;8.90;77.70;;;;;;5030310;28;20034;-68
2024/02/23 10:55:14;;;;;;;1.55;0.80;;;9.00;77.80;;;;;;5029857;28;20030;-67
2024/02/23 10:57:40;;;;;;;1.10;0.52;;;9.10;77.90;;;;;;5028541;28;20060;-68
2024/02/23 11:00:10;;;;;;;0.15;0.15;;;9.10;77.80;;;;;;5029569;28;20113;-68
2024/02/23 11:02:48;;;;;;;0.95;0.70;;;9.10;76.70;;;;;;5025290;28;20072;-68
2024/02/23 11:05:15;;;;;;;3.00;0.50;;;9.10;77.00;;;;;;5019614;28;20021;-67
2024/02/23 11:07:41;;;;;;;0.63;0.30;;;9.20;77.10;;;;;;5029304;28;20024;-68
2024/02/23 11:10:09;;;;;;;1.55;0.65;;;9.20;76.60;;;;;;5018880;28;20040;-68
2024/02/23 11:12:35;;;;;;;1.20;0.50;;;9.20;76.40;;;;;;5019692;28;20079;-68
2024/02/23 11:15:01;;;;;;;0.38;0.30;;;9.20;75.80;;;;;;5032216;28;20529;-68
2024/02/23 11:17:30;;;;;;;0.98;0.32;;;9.30;75.90;;;;;;5026127;28;20539;-68
2024/02/23 11:19:56;;;;;;;0.20;0.20;;;9.30;76.00;;;;;;5024563;28;20033;-68
2024/02/23 11:22:26;;;;;;;0.95;0.57;;;9.30;75.90;;;;;;5023076;28;20128;-68
2024/02/23 11:24:52;;;;;;;0.47;0.45;;;9.30;75.90;;;;;;5034553;28;20106;-68
2024/02/23 11:27:18;;;;;;;1.48;0.60;;;9.30;75.50;;;;;;5033304;28;20051;-68
2024/02/23 11:29:49;;;;;;;1.67;0.45;;;9.30;75.50;;;;;;5034153;28;20029;-72
2024/02/23 11:32:17;;;;;;;0.25;0.25;;;9.30;75.50;;;;;;5026919;28;20493;-70
2024/02/23 11:34:59;;;;;;;0.20;0.10;;;9.40;75.70;;;;;;5022029;28;20075;-71
2024/02/23 11:37:28;;;;;;;4.05;0.65;;;9.40;75.50;;;;;;5017376;28;20141;-70
2024/02/23 11:39:55;;;;;;;2.13;0.65;;;9.40;75.50;;;;;;5009863;28;20393;-69
2024/02/23 11:42:23;;;;;;;2.58;0.38;;;9.40;75.50;;;;;;5032261;28;20036;-69
2024/02/23 11:44:50;;;;;;;1.20;0.45;;;9.40;75.20;;;;;;5038106;28;20544;-68
2024/02/23 11:47:17;;;;;;;1.23;0.80;;;9.40;75.50;;;;;;5034480;28;20048;-68
2024/02/23 11:49:42;;;;;;;1.05;0.45;;;9.40;75.60;;;;;;5027876;28;20443;-70
2024/02/23 11:52:09;;;;;;;0.68;0.50;;;9.40;75.70;;;;;;5033105;28;20033;-68
2024/02/23 11:54:35;;;;;;;2.42;0.57;;;9.40;75.60;;;;;;5044465;28;20026;-68
2024/02/23 11:57:01;;;;;;;3.38;0.68;;;9.40;75.60;;;;;;5025948;28;20393;-68
2024/02/23 11:59:27;;;;;;;2.30;0.47;;;9.50;75.50;;;;;;5029759;28;20025;-69
2024/02/23 12:01:53;;;;;;;3.83;0.63;;;9.60;75.40;;;;;;5027406;28;20030;-68
2024/02/23 12:04:19;;;;;;;0.50;0.50;;;9.60;75.30;;;;;;5032249;28;20029;-68
2024/02/23 12:06:45;;;;;;;1.25;0.38;;;9.60;74.80;;;;;;5029953;28;20034;-68
2024/02/23 12:09:12;;;;;;;7.05;0.68;;;9.70;74.80;;;;;;5031772;28;20095;-68
2024/02/23 12:11:38;;;;;;;1.40;1.00;;;9.60;74.70;;;;;;5023309;28;20783;-68
2024/02/23 12:14:08;;;;;;;1.30;1.00;;;9.70;75.00;;;;;;5030960;28;20632;-68
2024/02/23 12:16:36;;;;;;;0.30;0.30;;;9.60;74.70;;;;;;5035096;28;20148;-68
2024/02/23 12:19:03;;;;;;;0.38;0.35;;;9.60;74.80;;;;;;5027822;28;20037;-68
2024/02/23 12:21:28;;;;;;;1.00;0.50;;;9.60;74.80;;;;;;5028443;28;20049;-68
2024/02/23 12:23:55;;;;;;;0.65;0.50;;;9.50;74.70;;;;;;5027571;28;20111;-68
2024/02/23 12:26:20;;;;;;;3.25;0.85;;;9.50;75.00;;;;;;5026431;28;20489;-64
2024/02/23 12:28:47;;;;;;;3.08;0.93;;;9.50;75.10;;;;;;5029942;28;20111;-68
2024/02/23 12:31:12;;;;;;;3.40;0.50;;;9.50;75.00;;;;;;5021189;28;20033;-68
2024/02/23 12:33:47;;;;;;;0.63;0.30;;;9.50;75.00;;;;;;5023364;28;20123;-64
2024/02/23 12:36:13;;;;;;;1.80;0.80;;;9.50;75.20;;;;;;5027142;28;20475;-64
2024/02/23 12:38:39;;;;;;;0.40;0.40;;;9.60;74.90;;;;;;5029047;28;20116;-67
2024/02/23 12:41:04;;;;;;;1.33;0.82;;;9.60;74.70;;;;;;5012296;28;20029;-68
2024/02/23 12:43:30;;;;;;;0.40;0.40;;;9.60;74.80;;;;;;5030809;28;20038;-64
2024/02/23 12:45:57;;;;;;;0.60;0.40;;;9.70;74.90;;;;;;5034849;28;20054;-63
2024/02/23 12:48:23;;;;;;;5.45;0.85;;;9.70;74.70;;;;;;5027233;28;20523;-67
2024/02/23 12:50:49;;;;;;;6.75;0.88;;;9.80;74.70;;;;;;5025437;28;20026;-67
2024/02/23 12:53:36;;;;;;;1.35;0.90;;;9.80;74.70;;;;;;5025840;28;20031;-67